sensor_id;sensor_type;location;lat;lon;timestamp;P1;durP1;ratioP1;P2;durP2;ratioP2
22922;SDS011;11627;51.322;22.816;2024-02-26T00:01:45;27.40;;;15.73;;
22922;SDS011;11627;51.322;22.816;2024-02-26T00:04:11;29.90;;;15.25;;
22922;SDS011;11627;51.322;22.816;2024-02-26T00:06:38;26.95;;;15.55;;
22922;SDS011;11627;51.322;22.816;2024-02-26T00:09:06;25.80;;;15.40;;
22922;SDS011;11627;51.322;22.816;2024-02-26T00:11:37;27.85;;;15.52;;
22922;SDS011;11627;51.322;22.816;2024-02-26T00:14:03;23.23;;;13.68;;
22922;SDS011;11627;51.322;22.816;2024-02-26T00:16:31;23.20;;;12.80;;
22922;SDS011;11627;51.322;22.816;2024-02-26T00:18:57;23.92;;;12.68;;
22922;SDS011;11627;51.322;22.816;2024-02-26T00:21:23;22.17;;;12.07;;
22922;SDS011;11627;51.322;22.816;2024-02-26T00:23:50;21.02;;;12.45;;
22922;SDS011;11627;51.322;22.816;2024-02-26T00:26:18;22.42;;;12.73;;
22922;SDS011;11627;51.322;22.816;2024-02-26T00:28:45;25.77;;;13.73;;
22922;SDS011;11627;51.322;22.816;2024-02-26T00:31:12;23.05;;;12.15;;
22922;SDS011;11627;51.322;22.816;2024-02-26T00:33:37;22.38;;;12.45;;
22922;SDS011;11627;51.322;22.816;2024-02-26T00:36:05;20.40;;;12.32;;
22922;SDS011;11627;51.322;22.816;2024-02-26T00:38:32;22.40;;;11.75;;
22922;SDS011;11627;51.322;22.816;2024-02-26T00:40:58;19.77;;;12.30;;
22922;SDS011;11627;51.322;22.816;2024-02-26T00:43:25;21.75;;;12.10;;
22922;SDS011;11627;51.322;22.816;2024-02-26T00:45:50;23.08;;;12.70;;
22922;SDS011;11627;51.322;22.816;2024-02-26T00:48:17;23.20;;;12.85;;
22922;SDS011;11627;51.322;22.816;2024-02-26T00:50:43;21.15;;;12.93;;
22922;SDS011;11627;51.322;22.816;2024-02-26T00:53:09;20.88;;;12.82;;
22922;SDS011;11627;51.322;22.816;2024-02-26T00:55:35;23.73;;;12.15;;
22922;SDS011;11627;51.322;22.816;2024-02-26T00:58:00;24.20;;;13.60;;
22922;SDS011;11627;51.322;22.816;2024-02-26T01:00:28;20.60;;;13.15;;
22922;SDS011;11627;51.322;22.816;2024-02-26T01:02:53;25.27;;;14.15;;
22922;SDS011;11627;51.322;22.816;2024-02-26T01:05:19;25.90;;;14.52;;
22922;SDS011;11627;51.322;22.816;2024-02-26T01:07:46;24.20;;;14.63;;
22922;SDS011;11627;51.322;22.816;2024-02-26T01:10:12;24.27;;;15.13;;
22922;SDS011;11627;51.322;22.816;2024-02-26T01:12:38;26.52;;;15.45;;
22922;SDS011;11627;51.322;22.816;2024-02-26T01:15:05;29.30;;;16.80;;
22922;SDS011;11627;51.322;22.816;2024-02-26T01:17:32;29.45;;;16.40;;
22922;SDS011;11627;51.322;22.816;2024-02-26T01:19:58;31.75;;;17.23;;
22922;SDS011;11627;51.322;22.816;2024-02-26T01:22:24;27.75;;;16.10;;
22922;SDS011;11627;51.322;22.816;2024-02-26T01:24:51;29.42;;;16.83;;
22922;SDS011;11627;51.322;22.816;2024-02-26T01:27:18;34.58;;;16.02;;
22922;SDS011;11627;51.322;22.816;2024-02-26T01:29:44;29.17;;;16.63;;
22922;SDS011;11627;51.322;22.816;2024-02-26T01:32:11;28.60;;;15.95;;
22922;SDS011;11627;51.322;22.816;2024-02-26T01:34:37;27.02;;;15.43;;
22922;SDS011;11627;51.322;22.816;2024-02-26T01:37:03;25.88;;;15.15;;
22922;SDS011;11627;51.322;22.816;2024-02-26T01:39:29;28.13;;;16.20;;
22922;SDS011;11627;51.322;22.816;2024-02-26T01:41:55;31.27;;;15.77;;
22922;SDS011;11627;51.322;22.816;2024-02-26T01:44:22;25.73;;;15.75;;
22922;SDS011;11627;51.322;22.816;2024-02-26T01:46:48;27.48;;;16.45;;
22922;SDS011;11627;51.322;22.816;2024-02-26T01:49:16;30.50;;;16.27;;
22922;SDS011;11627;51.322;22.816;2024-02-26T01:51:42;27.63;;;16.17;;
22922;SDS011;11627;51.322;22.816;2024-02-26T01:54:09;25.70;;;15.85;;
22922;SDS011;11627;51.322;22.816;2024-02-26T01:56:36;25.67;;;14.77;;
22922;SDS011;11627;51.322;22.816;2024-02-26T01:59:04;25.77;;;15.52;;
22922;SDS011;11627;51.322;22.816;2024-02-26T02:01:31;27.40;;;16.50;;
22922;SDS011;11627;51.322;22.816;2024-02-26T02:04:00;28.50;;;16.40;;
22922;SDS011;11627;51.322;22.816;2024-02-26T02:06:27;27.48;;;16.17;;
22922;SDS011;11627;51.322;22.816;2024-02-26T02:08:56;27.88;;;16.90;;
22922;SDS011;11627;51.322;22.816;2024-02-26T02:11:22;29.67;;;16.83;;
22922;SDS011;11627;51.322;22.816;2024-02-26T02:13:48;29.88;;;16.95;;
22922;SDS011;11627;51.322;22.816;2024-02-26T02:16:14;28.27;;;17.65;;
22922;SDS011;11627;51.322;22.816;2024-02-26T02:18:41;29.17;;;18.02;;
22922;SDS011;11627;51.322;22.816;2024-02-26T02:21:07;31.20;;;18.17;;
22922;SDS011;11627;51.322;22.816;2024-02-26T02:23:33;29.25;;;18.95;;
22922;SDS011;11627;51.322;22.816;2024-02-26T02:25:58;33.45;;;18.45;;
22922;SDS011;11627;51.322;22.816;2024-02-26T02:28:26;33.05;;;19.25;;
22922;SDS011;11627;51.322;22.816;2024-02-26T02:30:53;33.47;;;18.20;;
22922;SDS011;11627;51.322;22.816;2024-02-26T02:33:20;34.55;;;19.40;;
22922;SDS011;11627;51.322;22.816;2024-02-26T02:35:47;36.28;;;20.48;;
22922;SDS011;11627;51.322;22.816;2024-02-26T02:38:17;34.30;;;19.35;;
22922;SDS011;11627;51.322;22.816;2024-02-26T02:40:42;34.47;;;19.45;;
22922;SDS011;11627;51.322;22.816;2024-02-26T02:43:09;31.63;;;18.90;;
22922;SDS011;11627;51.322;22.816;2024-02-26T02:45:34;36.63;;;19.85;;
22922;SDS011;11627;51.322;22.816;2024-02-26T02:48:00;33.20;;;18.95;;
22922;SDS011;11627;51.322;22.816;2024-02-26T02:50:26;34.88;;;19.38;;
22922;SDS011;11627;51.322;22.816;2024-02-26T02:52:54;37.63;;;19.25;;
22922;SDS011;11627;51.322;22.816;2024-02-26T02:55:20;35.10;;;19.02;;
22922;SDS011;11627;51.322;22.816;2024-02-26T02:57:46;42.80;;;20.40;;
22922;SDS011;11627;51.322;22.816;2024-02-26T03:00:12;33.17;;;19.85;;
22922;SDS011;11627;51.322;22.816;2024-02-26T03:02:38;34.25;;;19.38;;
22922;SDS011;11627;51.322;22.816;2024-02-26T03:05:05;33.13;;;18.92;;
22922;SDS011;11627;51.322;22.816;2024-02-26T03:07:31;34.85;;;19.83;;
22922;SDS011;11627;51.322;22.816;2024-02-26T03:10:00;34.63;;;19.52;;
22922;SDS011;11627;51.322;22.816;2024-02-26T03:12:27;36.92;;;20.85;;
22922;SDS011;11627;51.322;22.816;2024-02-26T03:14:55;33.13;;;19.88;;
22922;SDS011;11627;51.322;22.816;2024-02-26T03:17:21;31.85;;;20.50;;
22922;SDS011;11627;51.322;22.816;2024-02-26T03:19:49;34.80;;;20.48;;
22922;SDS011;11627;51.322;22.816;2024-02-26T03:22:19;33.40;;;20.75;;
22922;SDS011;11627;51.322;22.816;2024-02-26T03:24:47;34.83;;;20.42;;
22922;SDS011;11627;51.322;22.816;2024-02-26T03:27:14;33.63;;;20.23;;
22922;SDS011;11627;51.322;22.816;2024-02-26T03:29:41;36.75;;;21.15;;
22922;SDS011;11627;51.322;22.816;2024-02-26T03:32:07;35.80;;;21.13;;
22922;SDS011;11627;51.322;22.816;2024-02-26T03:34:33;36.38;;;21.33;;
22922;SDS011;11627;51.322;22.816;2024-02-26T03:36:59;36.63;;;21.92;;
22922;SDS011;11627;51.322;22.816;2024-02-26T03:39:26;39.35;;;22.33;;
22922;SDS011;11627;51.322;22.816;2024-02-26T03:41:52;40.08;;;21.58;;
22922;SDS011;11627;51.322;22.816;2024-02-26T03:44:19;38.53;;;21.88;;
22922;SDS011;11627;51.322;22.816;2024-02-26T03:46:45;39.35;;;22.10;;
22922;SDS011;11627;51.322;22.816;2024-02-26T03:49:11;36.92;;;21.83;;
22922;SDS011;11627;51.322;22.816;2024-02-26T03:51:38;41.22;;;22.63;;
22922;SDS011;11627;51.322;22.816;2024-02-26T03:54:04;39.58;;;22.60;;
22922;SDS011;11627;51.322;22.816;2024-02-26T03:56:30;40.92;;;22.75;;
22922;SDS011;11627;51.322;22.816;2024-02-26T03:58:56;40.03;;;21.95;;
22922;SDS011;11627;51.322;22.816;2024-02-26T04:01:24;39.55;;;22.58;;
22922;SDS011;11627;51.322;22.816;2024-02-26T04:03:50;41.00;;;23.52;;
22922;SDS011;11627;51.322;22.816;2024-02-26T04:06:17;43.58;;;23.33;;
22922;SDS011;11627;51.322;22.816;2024-02-26T04:08:47;38.60;;;21.85;;
22922;SDS011;11627;51.322;22.816;2024-02-26T04:11:15;45.35;;;24.58;;
22922;SDS011;11627;51.322;22.816;2024-02-26T04:13:43;43.58;;;22.80;;
22922;SDS011;11627;51.322;22.816;2024-02-26T04:16:13;39.53;;;22.33;;
22922;SDS011;11627;51.322;22.816;2024-02-26T04:18:40;40.13;;;24.30;;
22922;SDS011;11627;51.322;22.816;2024-02-26T04:21:06;39.33;;;22.67;;
22922;SDS011;11627;51.322;22.816;2024-02-26T04:23:32;41.15;;;24.23;;
22922;SDS011;11627;51.322;22.816;2024-02-26T04:25:58;39.92;;;23.15;;
22922;SDS011;11627;51.322;22.816;2024-02-26T04:28:24;45.00;;;24.00;;
22922;SDS011;11627;51.322;22.816;2024-02-26T04:30:54;40.40;;;23.20;;
22922;SDS011;11627;51.322;22.816;2024-02-26T04:33:21;39.78;;;22.58;;
22922;SDS011;11627;51.322;22.816;2024-02-26T04:35:47;41.22;;;21.77;;
22922;SDS011;11627;51.322;22.816;2024-02-26T04:38:13;37.50;;;22.67;;
22922;SDS011;11627;51.322;22.816;2024-02-26T04:40:39;40.95;;;23.45;;
22922;SDS011;11627;51.322;22.816;2024-02-26T04:43:05;42.13;;;22.83;;
22922;SDS011;11627;51.322;22.816;2024-02-26T04:45:31;40.05;;;22.33;;
22922;SDS011;11627;51.322;22.816;2024-02-26T04:47:59;42.10;;;22.88;;
22922;SDS011;11627;51.322;22.816;2024-02-26T04:50:25;42.03;;;23.48;;
22922;SDS011;11627;51.322;22.816;2024-02-26T04:52:51;41.83;;;24.33;;
22922;SDS011;11627;51.322;22.816;2024-02-26T04:55:16;43.08;;;24.98;;
22922;SDS011;11627;51.322;22.816;2024-02-26T04:57:44;38.38;;;22.55;;
22922;SDS011;11627;51.322;22.816;2024-02-26T05:00:10;39.05;;;23.38;;
22922;SDS011;11627;51.322;22.816;2024-02-26T05:02:37;46.10;;;23.10;;
22922;SDS011;11627;51.322;22.816;2024-02-26T05:05:05;36.67;;;23.10;;
22922;SDS011;11627;51.322;22.816;2024-02-26T05:07:34;42.20;;;23.58;;
22922;SDS011;11627;51.322;22.816;2024-02-26T05:10:07;37.05;;;21.35;;
22922;SDS011;11627;51.322;22.816;2024-02-26T05:12:35;37.17;;;21.30;;
22922;SDS011;11627;51.322;22.816;2024-02-26T05:15:01;39.10;;;22.00;;
22922;SDS011;11627;51.322;22.816;2024-02-26T05:17:28;41.20;;;22.50;;
22922;SDS011;11627;51.322;22.816;2024-02-26T05:19:53;38.58;;;21.88;;
22922;SDS011;11627;51.322;22.816;2024-02-26T05:22:20;38.35;;;23.05;;
22922;SDS011;11627;51.322;22.816;2024-02-26T05:24:46;39.88;;;22.25;;
22922;SDS011;11627;51.322;22.816;2024-02-26T05:27:13;42.83;;;23.42;;
22922;SDS011;11627;51.322;22.816;2024-02-26T05:29:39;44.17;;;23.25;;
22922;SDS011;11627;51.322;22.816;2024-02-26T05:32:05;48.08;;;24.75;;
22922;SDS011;11627;51.322;22.816;2024-02-26T05:34:31;43.13;;;23.33;;
22922;SDS011;11627;51.322;22.816;2024-02-26T05:37:00;44.10;;;24.08;;
22922;SDS011;11627;51.322;22.816;2024-02-26T05:39:25;45.28;;;25.13;;
22922;SDS011;11627;51.322;22.816;2024-02-26T05:41:53;42.53;;;24.13;;
22922;SDS011;11627;51.322;22.816;2024-02-26T05:44:19;50.50;;;25.42;;
22922;SDS011;11627;51.322;22.816;2024-02-26T05:46:45;45.22;;;25.48;;
22922;SDS011;11627;51.322;22.816;2024-02-26T05:49:11;49.75;;;26.88;;
22922;SDS011;11627;51.322;22.816;2024-02-26T05:51:38;50.20;;;27.25;;
22922;SDS011;11627;51.322;22.816;2024-02-26T05:54:04;49.05;;;26.65;;
22922;SDS011;11627;51.322;22.816;2024-02-26T05:56:31;49.97;;;27.00;;
22922;SDS011;11627;51.322;22.816;2024-02-26T05:58:57;47.88;;;26.70;;
22922;SDS011;11627;51.322;22.816;2024-02-26T06:01:24;50.97;;;27.13;;
22922;SDS011;11627;51.322;22.816;2024-02-26T06:03:53;47.72;;;26.65;;
22922;SDS011;11627;51.322;22.816;2024-02-26T06:06:19;56.30;;;27.38;;
22922;SDS011;11627;51.322;22.816;2024-02-26T06:08:47;55.08;;;28.65;;
22922;SDS011;11627;51.322;22.816;2024-02-26T06:11:14;51.90;;;28.38;;
22922;SDS011;11627;51.322;22.816;2024-02-26T06:13:40;48.40;;;26.55;;
22922;SDS011;11627;51.322;22.816;2024-02-26T06:16:07;51.85;;;27.35;;
22922;SDS011;11627;51.322;22.816;2024-02-26T06:18:33;52.05;;;27.27;;
22922;SDS011;11627;51.322;22.816;2024-02-26T06:21:00;49.08;;;27.40;;
22922;SDS011;11627;51.322;22.816;2024-02-26T06:23:26;48.92;;;26.95;;
22922;SDS011;11627;51.322;22.816;2024-02-26T06:25:52;53.45;;;28.38;;
22922;SDS011;11627;51.322;22.816;2024-02-26T06:28:19;55.90;;;29.98;;
22922;SDS011;11627;51.322;22.816;2024-02-26T06:30:45;60.15;;;30.60;;
22922;SDS011;11627;51.322;22.816;2024-02-26T06:33:11;61.83;;;31.38;;
22922;SDS011;11627;51.322;22.816;2024-02-26T06:35:37;66.97;;;33.17;;
22922;SDS011;11627;51.322;22.816;2024-02-26T06:38:03;67.78;;;36.13;;
22922;SDS011;11627;51.322;22.816;2024-02-26T06:40:31;72.72;;;36.60;;
22922;SDS011;11627;51.322;22.816;2024-02-26T06:42:57;70.55;;;34.35;;
22922;SDS011;11627;51.322;22.816;2024-02-26T06:45:23;59.55;;;30.73;;
22922;SDS011;11627;51.322;22.816;2024-02-26T06:47:50;63.80;;;30.63;;
22922;SDS011;11627;51.322;22.816;2024-02-26T06:50:17;59.63;;;29.60;;
22922;SDS011;11627;51.322;22.816;2024-02-26T06:52:44;57.35;;;29.42;;
22922;SDS011;11627;51.322;22.816;2024-02-26T06:55:11;57.55;;;30.27;;
22922;SDS011;11627;51.322;22.816;2024-02-26T06:57:38;64.32;;;31.83;;
22922;SDS011;11627;51.322;22.816;2024-02-26T07:00:04;58.47;;;31.05;;
22922;SDS011;11627;51.322;22.816;2024-02-26T07:02:31;60.15;;;30.80;;
22922;SDS011;11627;51.322;22.816;2024-02-26T07:04:58;59.55;;;30.35;;
22922;SDS011;11627;51.322;22.816;2024-02-26T07:07:24;62.15;;;31.27;;
22922;SDS011;11627;51.322;22.816;2024-02-26T07:09:50;60.28;;;31.33;;
22922;SDS011;11627;51.322;22.816;2024-02-26T07:12:16;59.47;;;30.92;;
22922;SDS011;11627;51.322;22.816;2024-02-26T07:14:44;62.72;;;30.73;;
22922;SDS011;11627;51.322;22.816;2024-02-26T07:17:12;59.85;;;31.10;;
22922;SDS011;11627;51.322;22.816;2024-02-26T07:19:38;63.45;;;32.15;;
22922;SDS011;11627;51.322;22.816;2024-02-26T07:22:06;67.20;;;32.70;;
22922;SDS011;11627;51.322;22.816;2024-02-26T07:24:32;59.45;;;30.05;;
22922;SDS011;11627;51.322;22.816;2024-02-26T07:26:58;61.67;;;31.77;;
22922;SDS011;11627;51.322;22.816;2024-02-26T07:29:23;63.88;;;31.55;;
22922;SDS011;11627;51.322;22.816;2024-02-26T07:31:51;59.03;;;29.90;;
22922;SDS011;11627;51.322;22.816;2024-02-26T07:34:17;57.72;;;30.85;;
22922;SDS011;11627;51.322;22.816;2024-02-26T07:36:43;62.65;;;31.00;;
22922;SDS011;11627;51.322;22.816;2024-02-26T07:39:09;62.15;;;31.27;;
22922;SDS011;11627;51.322;22.816;2024-02-26T07:41:36;58.35;;;30.17;;
22922;SDS011;11627;51.322;22.816;2024-02-26T07:44:03;54.40;;;30.23;;
22922;SDS011;11627;51.322;22.816;2024-02-26T07:46:29;56.33;;;31.92;;
22922;SDS011;11627;51.322;22.816;2024-02-26T07:48:56;56.42;;;31.83;;
22922;SDS011;11627;51.322;22.816;2024-02-26T07:51:25;51.05;;;29.13;;
22922;SDS011;11627;51.322;22.816;2024-02-26T07:53:52;54.72;;;29.88;;
22922;SDS011;11627;51.322;22.816;2024-02-26T07:56:18;58.55;;;32.15;;
22922;SDS011;11627;51.322;22.816;2024-02-26T07:58:44;55.92;;;31.00;;
22922;SDS011;11627;51.322;22.816;2024-02-26T08:01:14;57.00;;;32.00;;
22922;SDS011;11627;51.322;22.816;2024-02-26T08:03:41;60.30;;;31.70;;
22922;SDS011;11627;51.322;22.816;2024-02-26T08:06:10;57.55;;;31.48;;
22922;SDS011;11627;51.322;22.816;2024-02-26T08:08:36;59.90;;;31.17;;
22922;SDS011;11627;51.322;22.816;2024-02-26T08:11:02;57.83;;;31.67;;
22922;SDS011;11627;51.322;22.816;2024-02-26T08:13:28;57.35;;;32.10;;
22922;SDS011;11627;51.322;22.816;2024-02-26T08:15:55;60.65;;;31.85;;
22922;SDS011;11627;51.322;22.816;2024-02-26T08:18:21;60.47;;;32.80;;
22922;SDS011;11627;51.322;22.816;2024-02-26T08:20:48;57.08;;;30.85;;
22922;SDS011;11627;51.322;22.816;2024-02-26T08:23:14;51.53;;;29.38;;
22922;SDS011;11627;51.322;22.816;2024-02-26T08:25:40;58.95;;;31.48;;
22922;SDS011;11627;51.322;22.816;2024-02-26T08:28:07;52.15;;;29.55;;
22922;SDS011;11627;51.322;22.816;2024-02-26T08:30:34;51.22;;;28.85;;
22922;SDS011;11627;51.322;22.816;2024-02-26T08:33:00;52.20;;;28.02;;
22922;SDS011;11627;51.322;22.816;2024-02-26T08:35:26;53.22;;;28.27;;
22922;SDS011;11627;51.322;22.816;2024-02-26T08:37:52;55.42;;;29.70;;
22922;SDS011;11627;51.322;22.816;2024-02-26T08:40:18;53.03;;;27.83;;
22922;SDS011;11627;51.322;22.816;2024-02-26T08:42:44;56.25;;;29.45;;
22922;SDS011;11627;51.322;22.816;2024-02-26T08:45:12;53.03;;;28.38;;
22922;SDS011;11627;51.322;22.816;2024-02-26T08:47:38;47.25;;;26.73;;
22922;SDS011;11627;51.322;22.816;2024-02-26T08:50:04;52.97;;;28.52;;
22922;SDS011;11627;51.322;22.816;2024-02-26T08:52:32;50.08;;;25.98;;
22922;SDS011;11627;51.322;22.816;2024-02-26T08:55:00;48.13;;;26.90;;
22922;SDS011;11627;51.322;22.816;2024-02-26T08:57:27;44.15;;;25.42;;
22922;SDS011;11627;51.322;22.816;2024-02-26T08:59:54;41.13;;;23.85;;
22922;SDS011;11627;51.322;22.816;2024-02-26T09:02:21;41.00;;;23.88;;
22922;SDS011;11627;51.322;22.816;2024-02-26T09:04:47;39.40;;;23.13;;
22922;SDS011;11627;51.322;22.816;2024-02-26T09:07:19;39.67;;;22.95;;
22922;SDS011;11627;51.322;22.816;2024-02-26T09:09:46;38.78;;;22.67;;
22922;SDS011;11627;51.322;22.816;2024-02-26T09:12:12;41.80;;;23.42;;
22922;SDS011;11627;51.322;22.816;2024-02-26T09:14:38;54.20;;;28.58;;
22922;SDS011;11627;51.322;22.816;2024-02-26T09:17:04;41.33;;;24.27;;
22922;SDS011;11627;51.322;22.816;2024-02-26T09:19:32;36.97;;;23.00;;
22922;SDS011;11627;51.322;22.816;2024-02-26T09:21:58;41.72;;;23.02;;
22922;SDS011;11627;51.322;22.816;2024-02-26T09:24:24;39.50;;;22.17;;
22922;SDS011;11627;51.322;22.816;2024-02-26T09:26:51;39.97;;;22.05;;
22922;SDS011;11627;51.322;22.816;2024-02-26T09:29:17;35.28;;;21.45;;
22922;SDS011;11627;51.322;22.816;2024-02-26T09:31:43;37.67;;;22.42;;
22922;SDS011;11627;51.322;22.816;2024-02-26T09:34:12;35.63;;;21.42;;
22922;SDS011;11627;51.322;22.816;2024-02-26T09:36:38;38.50;;;21.27;;
22922;SDS011;11627;51.322;22.816;2024-02-26T09:39:06;39.25;;;22.73;;
22922;SDS011;11627;51.322;22.816;2024-02-26T09:41:36;37.90;;;20.60;;
22922;SDS011;11627;51.322;22.816;2024-02-26T09:44:03;39.40;;;21.85;;
22922;SDS011;11627;51.322;22.816;2024-02-26T09:46:30;36.00;;;22.00;;
22922;SDS011;11627;51.322;22.816;2024-02-26T09:48:57;37.03;;;21.60;;
22922;SDS011;11627;51.322;22.816;2024-02-26T09:51:25;37.42;;;21.65;;
22922;SDS011;11627;51.322;22.816;2024-02-26T09:53:52;41.03;;;21.98;;
22922;SDS011;11627;51.322;22.816;2024-02-26T09:56:20;36.22;;;21.98;;
22922;SDS011;11627;51.322;22.816;2024-02-26T09:58:46;41.22;;;21.27;;
22922;SDS011;11627;51.322;22.816;2024-02-26T10:01:16;33.25;;;21.02;;
22922;SDS011;11627;51.322;22.816;2024-02-26T10:03:43;35.40;;;21.02;;
22922;SDS011;11627;51.322;22.816;2024-02-26T10:06:13;39.25;;;22.67;;
22922;SDS011;11627;51.322;22.816;2024-02-26T10:08:39;35.50;;;21.73;;
22922;SDS011;11627;51.322;22.816;2024-02-26T10:11:06;37.33;;;23.48;;
22922;SDS011;11627;51.322;22.816;2024-02-26T10:13:34;41.35;;;21.90;;
22922;SDS011;11627;51.322;22.816;2024-02-26T10:16:03;40.05;;;23.35;;
22922;SDS011;11627;51.322;22.816;2024-02-26T10:18:49;37.53;;;21.98;;
22922;SDS011;11627;51.322;22.816;2024-02-26T10:21:20;37.25;;;20.67;;
22922;SDS011;11627;51.322;22.816;2024-02-26T10:23:47;36.85;;;21.83;;
22922;SDS011;11627;51.322;22.816;2024-02-26T10:26:17;36.40;;;21.73;;
22922;SDS011;11627;51.322;22.816;2024-02-26T10:28:45;34.08;;;20.98;;
22922;SDS011;11627;51.322;22.816;2024-02-26T10:31:13;36.75;;;21.70;;
22922;SDS011;11627;51.322;22.816;2024-02-26T10:33:39;37.60;;;21.70;;
22922;SDS011;11627;51.322;22.816;2024-02-26T10:36:08;40.00;;;21.10;;
22922;SDS011;11627;51.322;22.816;2024-02-26T10:38:34;33.25;;;19.88;;
22922;SDS011;11627;51.322;22.816;2024-02-26T10:41:02;35.97;;;19.75;;
22922;SDS011;11627;51.322;22.816;2024-02-26T10:43:34;33.30;;;19.45;;
22922;SDS011;11627;51.322;22.816;2024-02-26T10:46:00;30.48;;;18.75;;
22922;SDS011;11627;51.322;22.816;2024-02-26T10:48:27;36.70;;;20.00;;
22922;SDS011;11627;51.322;22.816;2024-02-26T10:50:56;33.30;;;19.42;;
22922;SDS011;11627;51.322;22.816;2024-02-26T10:53:23;33.28;;;19.42;;
22922;SDS011;11627;51.322;22.816;2024-02-26T10:55:54;31.42;;;18.77;;
22922;SDS011;11627;51.322;22.816;2024-02-26T10:58:24;30.77;;;18.90;;
22922;SDS011;11627;51.322;22.816;2024-02-26T11:00:53;32.33;;;19.40;;
22922;SDS011;11627;51.322;22.816;2024-02-26T11:03:22;31.95;;;18.02;;
22922;SDS011;11627;51.322;22.816;2024-02-26T11:05:51;33.08;;;18.90;;
22922;SDS011;11627;51.322;22.816;2024-02-26T11:08:22;33.95;;;18.80;;
22922;SDS011;11627;51.322;22.816;2024-02-26T11:10:52;31.67;;;18.80;;
22922;SDS011;11627;51.322;22.816;2024-02-26T11:13:21;33.75;;;19.25;;
22922;SDS011;11627;51.322;22.816;2024-02-26T11:15:55;31.08;;;19.27;;
22922;SDS011;11627;51.322;22.816;2024-02-26T11:18:27;33.25;;;19.83;;
22922;SDS011;11627;51.322;22.816;2024-02-26T11:20:59;36.88;;;19.80;;
22922;SDS011;11627;51.322;22.816;2024-02-26T11:23:36;28.70;;;18.10;;
22922;SDS011;11627;51.322;22.816;2024-02-26T11:26:07;28.60;;;17.88;;
22922;SDS011;11627;51.322;22.816;2024-02-26T11:28:35;30.85;;;17.70;;
22922;SDS011;11627;51.322;22.816;2024-02-26T11:31:03;33.88;;;19.08;;
22922;SDS011;11627;51.322;22.816;2024-02-26T11:33:34;31.40;;;19.27;;
22922;SDS011;11627;51.322;22.816;2024-02-26T11:36:07;31.83;;;18.48;;
22922;SDS011;11627;51.322;22.816;2024-02-26T11:38:39;29.10;;;17.45;;
22922;SDS011;11627;51.322;22.816;2024-02-26T11:41:05;29.30;;;16.83;;
22922;SDS011;11627;51.322;22.816;2024-02-26T11:46:31;29.08;;;16.05;;
22922;SDS011;11627;51.322;22.816;2024-02-26T11:51:55;26.23;;;15.60;;
22922;SDS011;11627;51.322;22.816;2024-02-26T11:57:30;23.98;;;15.00;;
22922;SDS011;11627;51.322;22.816;2024-02-26T12:02:48;24.33;;;14.80;;
22922;SDS011;11627;51.322;22.816;2024-02-26T12:05:35;24.70;;;15.40;;
22922;SDS011;11627;51.322;22.816;2024-02-26T12:08:04;24.42;;;15.35;;
22922;SDS011;11627;51.322;22.816;2024-02-26T12:10:39;26.65;;;14.80;;
22922;SDS011;11627;51.322;22.816;2024-02-26T12:13:07;23.45;;;13.73;;
22922;SDS011;11627;51.322;22.816;2024-02-26T12:15:45;23.20;;;14.55;;
22922;SDS011;11627;51.322;22.816;2024-02-26T12:18:31;21.50;;;14.32;;
22922;SDS011;11627;51.322;22.816;2024-02-26T12:21:01;27.73;;;16.00;;
22922;SDS011;11627;51.322;22.816;2024-02-26T12:23:31;24.13;;;15.07;;
22922;SDS011;11627;51.322;22.816;2024-02-26T12:26:01;25.08;;;13.65;;
22922;SDS011;11627;51.322;22.816;2024-02-26T12:28:29;22.05;;;14.70;;
22922;SDS011;11627;51.322;22.816;2024-02-26T12:30:56;20.85;;;13.50;;
22922;SDS011;11627;51.322;22.816;2024-02-26T12:33:26;25.02;;;14.52;;
22922;SDS011;11627;51.322;22.816;2024-02-26T12:35:54;21.40;;;13.73;;
22922;SDS011;11627;51.322;22.816;2024-02-26T12:38:20;16.65;;;12.00;;
22922;SDS011;11627;51.322;22.816;2024-02-26T12:40:47;19.50;;;11.80;;
22922;SDS011;11627;51.322;22.816;2024-02-26T12:43:14;17.60;;;12.05;;
22922;SDS011;11627;51.322;22.816;2024-02-26T12:45:42;17.23;;;11.35;;
22922;SDS011;11627;51.322;22.816;2024-02-26T12:48:12;16.58;;;10.75;;
22922;SDS011;11627;51.322;22.816;2024-02-26T12:50:39;15.85;;;10.60;;
22922;SDS011;11627;51.322;22.816;2024-02-26T12:53:05;13.93;;;9.63;;
22922;SDS011;11627;51.322;22.816;2024-02-26T12:55:31;18.67;;;10.10;;
22922;SDS011;11627;51.322;22.816;2024-02-26T12:58:01;13.07;;;9.07;;
22922;SDS011;11627;51.322;22.816;2024-02-26T13:00:29;17.65;;;10.55;;
22922;SDS011;11627;51.322;22.816;2024-02-26T13:02:56;20.70;;;11.25;;
22922;SDS011;11627;51.322;22.816;2024-02-26T13:05:26;16.27;;;10.27;;
22922;SDS011;11627;51.322;22.816;2024-02-26T13:07:53;19.13;;;10.45;;
22922;SDS011;11627;51.322;22.816;2024-02-26T13:10:19;16.45;;;9.52;;
22922;SDS011;11627;51.322;22.816;2024-02-26T13:12:48;14.52;;;9.68;;
22922;SDS011;11627;51.322;22.816;2024-02-26T13:15:20;15.75;;;8.95;;
22922;SDS011;11627;51.322;22.816;2024-02-26T13:17:47;14.50;;;9.05;;
22922;SDS011;11627;51.322;22.816;2024-02-26T13:20:27;14.00;;;9.02;;
22922;SDS011;11627;51.322;22.816;2024-02-26T13:23:01;13.00;;;9.38;;
22922;SDS011;11627;51.322;22.816;2024-02-26T13:25:31;15.70;;;8.77;;
22922;SDS011;11627;51.322;22.816;2024-02-26T13:28:06;18.23;;;9.07;;
22922;SDS011;11627;51.322;22.816;2024-02-26T13:30:56;16.30;;;9.80;;
22922;SDS011;11627;51.322;22.816;2024-02-26T13:33:25;20.45;;;11.57;;
22922;SDS011;11627;51.322;22.816;2024-02-26T13:35:55;23.25;;;12.05;;
22922;SDS011;11627;51.322;22.816;2024-02-26T13:38:23;18.73;;;12.57;;
22922;SDS011;11627;51.322;22.816;2024-02-26T13:40:51;18.70;;;12.43;;
22922;SDS011;11627;51.322;22.816;2024-02-26T13:43:19;23.27;;;14.68;;
22922;SDS011;11627;51.322;22.816;2024-02-26T13:45:45;25.52;;;15.27;;
22922;SDS011;11627;51.322;22.816;2024-02-26T13:48:12;25.02;;;14.85;;
22922;SDS011;11627;51.322;22.816;2024-02-26T13:50:39;25.90;;;14.65;;
22922;SDS011;11627;51.322;22.816;2024-02-26T13:53:08;23.75;;;13.43;;
22922;SDS011;11627;51.322;22.816;2024-02-26T13:55:34;22.77;;;13.82;;
22922;SDS011;11627;51.322;22.816;2024-02-26T13:58:01;20.90;;;12.73;;
22922;SDS011;11627;51.322;22.816;2024-02-26T14:00:28;21.67;;;13.88;;
22922;SDS011;11627;51.322;22.816;2024-02-26T14:02:57;22.42;;;14.38;;
22922;SDS011;11627;51.322;22.816;2024-02-26T14:05:24;30.67;;;15.15;;
22922;SDS011;11627;51.322;22.816;2024-02-26T14:07:49;24.70;;;15.05;;
22922;SDS011;11627;51.322;22.816;2024-02-26T14:10:17;27.75;;;15.77;;
22922;SDS011;11627;51.322;22.816;2024-02-26T14:12:43;27.63;;;16.25;;
22922;SDS011;11627;51.322;22.816;2024-02-26T14:15:09;26.17;;;16.75;;
22922;SDS011;11627;51.322;22.816;2024-02-26T14:17:36;30.90;;;18.02;;
22922;SDS011;11627;51.322;22.816;2024-02-26T14:20:02;41.88;;;19.25;;
22922;SDS011;11627;51.322;22.816;2024-02-26T14:22:28;38.15;;;19.60;;